sensor_id;sensor_type;location;lat;lon;timestamp;P1;durP1;ratioP1;P2;durP2;ratioP2
48487;SDS011;34289;48.572;13.378;2023-05-10T00:02:06;11.25;;;9.98;;
48487;SDS011;34289;48.572;13.378;2023-05-10T00:04:32;12.48;;;9.98;;
48487;SDS011;34289;48.572;13.378;2023-05-10T00:06:57;10.18;;;9.20;;
48487;SDS011;34289;48.572;13.378;2023-05-10T00:09:23;10.38;;;9.50;;
48487;SDS011;34289;48.572;13.378;2023-05-10T00:11:49;10.50;;;9.68;;
48487;SDS011;34289;48.572;13.378;2023-05-10T00:14:15;18.02;;;9.63;;
48487;SDS011;34289;48.572;13.378;2023-05-10T00:16:40;10.20;;;9.30;;
48487;SDS011;34289;48.572;13.378;2023-05-10T00:19:06;11.93;;;9.48;;
48487;SDS011;34289;48.572;13.378;2023-05-10T00:21:31;9.57;;;8.93;;
48487;SDS011;34289;48.572;13.378;2023-05-10T00:23:58;10.60;;;9.57;;
48487;SDS011;34289;48.572;13.378;2023-05-10T00:26:24;9.27;;;8.57;;
48487;SDS011;34289;48.572;13.378;2023-05-10T00:28:50;9.25;;;8.27;;
48487;SDS011;34289;48.572;13.378;2023-05-10T00:31:15;8.23;;;7.63;;
48487;SDS011;34289;48.572;13.378;2023-05-10T00:33:41;9.13;;;8.43;;
48487;SDS011;34289;48.572;13.378;2023-05-10T00:36:06;9.02;;;8.32;;
48487;SDS011;34289;48.572;13.378;2023-05-10T00:38:33;9.05;;;8.30;;
48487;SDS011;34289;48.572;13.378;2023-05-10T00:40:58;8.85;;;8.05;;
48487;SDS011;34289;48.572;13.378;2023-05-10T00:43:24;8.73;;;7.90;;
48487;SDS011;34289;48.572;13.378;2023-05-10T00:45:50;8.88;;;8.05;;
48487;SDS011;34289;48.572;13.378;2023-05-10T00:48:15;8.13;;;7.47;;
48487;SDS011;34289;48.572;13.378;2023-05-10T00:50:41;8.32;;;7.60;;
48487;SDS011;34289;48.572;13.378;2023-05-10T00:53:07;9.73;;;7.90;;
48487;SDS011;34289;48.572;13.378;2023-05-10T00:55:33;8.93;;;7.45;;
48487;SDS011;34289;48.572;13.378;2023-05-10T00:57:59;8.23;;;7.55;;
48487;SDS011;34289;48.572;13.378;2023-05-10T01:00:24;8.48;;;7.68;;
48487;SDS011;34289;48.572;13.378;2023-05-10T01:02:50;11.52;;;7.60;;
48487;SDS011;34289;48.572;13.378;2023-05-10T01:05:17;9.20;;;7.60;;
48487;SDS011;34289;48.572;13.378;2023-05-10T01:07:43;9.57;;;7.88;;
48487;SDS011;34289;48.572;13.378;2023-05-10T01:10:09;8.13;;;7.38;;
48487;SDS011;34289;48.572;13.378;2023-05-10T01:12:35;9.27;;;5.45;;
48487;SDS011;34289;48.572;13.378;2023-05-10T01:15:05;6.00;;;4.80;;
48487;SDS011;34289;48.572;13.378;2023-05-10T01:17:35;6.60;;;5.20;;
48487;SDS011;34289;48.572;13.378;2023-05-10T01:20:04;7.32;;;3.97;;
48487;SDS011;34289;48.572;13.378;2023-05-10T01:28:31;5.70;;;4.32;;
48487;SDS011;34289;48.572;13.378;2023-05-10T01:31:30;9.20;;;4.88;;
48487;SDS011;34289;48.572;13.378;2023-05-10T01:36:48;11.35;;;5.20;;
48487;SDS011;34289;48.572;13.378;2023-05-10T01:39:40;8.77;;;4.97;;
48487;SDS011;34289;48.572;13.378;2023-05-10T01:42:21;5.40;;;4.03;;
48487;SDS011;34289;48.572;13.378;2023-05-10T01:47:20;5.00;;;4.50;;
48487;SDS011;34289;48.572;13.378;2023-05-10T01:50:00;6.05;;;4.43;;
48487;SDS011;34289;48.572;13.378;2023-05-10T01:52:36;6.50;;;4.70;;
48487;SDS011;34289;48.572;13.378;2023-05-10T01:55:06;7.95;;;3.75;;
48487;SDS011;34289;48.572;13.378;2023-05-10T01:57:35;8.88;;;4.55;;
48487;SDS011;34289;48.572;13.378;2023-05-10T02:00:07;7.30;;;4.35;;
48487;SDS011;34289;48.572;13.378;2023-05-10T02:02:38;4.53;;;4.00;;
48487;SDS011;34289;48.572;13.378;2023-05-10T02:05:07;6.50;;;4.22;;
48487;SDS011;34289;48.572;13.378;2023-05-10T02:07:34;7.70;;;4.65;;
48487;SDS011;34289;48.572;13.378;2023-05-10T02:10:02;6.88;;;4.90;;
48487;SDS011;34289;48.572;13.378;2023-05-10T02:12:36;6.10;;;5.07;;
48487;SDS011;34289;48.572;13.378;2023-05-10T02:15:06;9.00;;;4.78;;
48487;SDS011;34289;48.572;13.378;2023-05-10T02:17:34;5.97;;;5.15;;
48487;SDS011;34289;48.572;13.378;2023-05-10T02:20:02;10.18;;;4.72;;
48487;SDS011;34289;48.572;13.378;2023-05-10T02:22:30;5.63;;;4.90;;
48487;SDS011;34289;48.572;13.378;2023-05-10T02:24:57;8.63;;;4.63;;
48487;SDS011;34289;48.572;13.378;2023-05-10T02:27:23;5.25;;;4.75;;
48487;SDS011;34289;48.572;13.378;2023-05-10T02:29:50;10.60;;;5.53;;
48487;SDS011;34289;48.572;13.378;2023-05-10T02:32:17;6.97;;;6.28;;
48487;SDS011;34289;48.572;13.378;2023-05-10T02:34:44;6.32;;;5.70;;
48487;SDS011;34289;48.572;13.378;2023-05-10T02:37:14;6.78;;;6.07;;
48487;SDS011;34289;48.572;13.378;2023-05-10T02:39:41;6.38;;;5.78;;
48487;SDS011;34289;48.572;13.378;2023-05-10T02:42:11;6.47;;;5.88;;
48487;SDS011;34289;48.572;13.378;2023-05-10T02:44:41;10.23;;;5.80;;
48487;SDS011;34289;48.572;13.378;2023-05-10T02:47:08;6.38;;;5.78;;
48487;SDS011;34289;48.572;13.378;2023-05-10T02:49:33;8.85;;;6.72;;
48487;SDS011;34289;48.572;13.378;2023-05-10T02:52:00;7.03;;;6.28;;
48487;SDS011;34289;48.572;13.378;2023-05-10T02:54:30;8.63;;;7.13;;
48487;SDS011;34289;48.572;13.378;2023-05-10T02:57:00;9.65;;;6.57;;
48487;SDS011;34289;48.572;13.378;2023-05-10T02:59:29;8.85;;;7.57;;
48487;SDS011;34289;48.572;13.378;2023-05-10T03:01:55;7.85;;;7.05;;
48487;SDS011;34289;48.572;13.378;2023-05-10T03:04:21;8.52;;;7.15;;
48487;SDS011;34289;48.572;13.378;2023-05-10T03:06:47;8.90;;;7.35;;
48487;SDS011;34289;48.572;13.378;2023-05-10T03:09:13;8.30;;;7.50;;
48487;SDS011;34289;48.572;13.378;2023-05-10T03:11:52;7.95;;;7.25;;
48487;SDS011;34289;48.572;13.378;2023-05-10T03:17:04;7.88;;;7.18;;
48487;SDS011;34289;48.572;13.378;2023-05-10T03:22:08;7.43;;;6.73;;
48487;SDS011;34289;48.572;13.378;2023-05-10T03:24:37;7.20;;;6.50;;
48487;SDS011;34289;48.572;13.378;2023-05-10T03:27:06;7.93;;;7.22;;
48487;SDS011;34289;48.572;13.378;2023-05-10T03:29:32;10.23;;;7.00;;
48487;SDS011;34289;48.572;13.378;2023-05-10T03:31:58;7.97;;;7.18;;
48487;SDS011;34289;48.572;13.378;2023-05-10T03:34:25;7.20;;;6.50;;
48487;SDS011;34289;48.572;13.378;2023-05-10T03:36:51;6.68;;;5.78;;
48487;SDS011;34289;48.572;13.378;2023-05-10T03:39:17;11.90;;;6.97;;
48487;SDS011;34289;48.572;13.378;2023-05-10T03:41:42;8.93;;;6.70;;
48487;SDS011;34289;48.572;13.378;2023-05-10T03:44:08;7.28;;;6.63;;
48487;SDS011;34289;48.572;13.378;2023-05-10T03:46:33;6.78;;;6.07;;
48487;SDS011;34289;48.572;13.378;2023-05-10T03:48:59;8.15;;;6.28;;
48487;SDS011;34289;48.572;13.378;2023-05-10T03:51:25;7.40;;;6.40;;
48487;SDS011;34289;48.572;13.378;2023-05-10T03:53:53;6.35;;;5.82;;
48487;SDS011;34289;48.572;13.378;2023-05-10T03:56:22;8.60;;;6.10;;
48487;SDS011;34289;48.572;13.378;2023-05-10T03:58:47;7.35;;;6.65;;
48487;SDS011;34289;48.572;13.378;2023-05-10T04:01:13;9.68;;;6.45;;
48487;SDS011;34289;48.572;13.378;2023-05-10T04:03:39;7.28;;;6.57;;
48487;SDS011;34289;48.572;13.378;2023-05-10T04:06:05;7.15;;;6.45;;
48487;SDS011;34289;48.572;13.378;2023-05-10T04:08:31;7.05;;;6.43;;
48487;SDS011;34289;48.572;13.378;2023-05-10T04:13:35;8.65;;;6.57;;
48487;SDS011;34289;48.572;13.378;2023-05-10T04:16:01;6.85;;;6.25;;
48487;SDS011;34289;48.572;13.378;2023-05-10T04:18:27;6.43;;;5.82;;
48487;SDS011;34289;48.572;13.378;2023-05-10T04:20:53;9.23;;;6.72;;
48487;SDS011;34289;48.572;13.378;2023-05-10T04:23:18;7.43;;;6.72;;
48487;SDS011;34289;48.572;13.378;2023-05-10T04:25:44;7.28;;;6.28;;
48487;SDS011;34289;48.572;13.378;2023-05-10T04:28:09;6.95;;;6.35;;
48487;SDS011;34289;48.572;13.378;2023-05-10T04:30:35;6.07;;;5.57;;
48487;SDS011;34289;48.572;13.378;2023-05-10T04:33:01;9.52;;;6.38;;
48487;SDS011;34289;48.572;13.378;2023-05-10T04:35:27;8.88;;;6.07;;
48487;SDS011;34289;48.572;13.378;2023-05-10T04:37:53;6.70;;;6.10;;
48487;SDS011;34289;48.572;13.378;2023-05-10T04:40:19;7.03;;;6.28;;
48487;SDS011;34289;48.572;13.378;2023-05-10T04:42:45;7.13;;;6.43;;
48487;SDS011;34289;48.572;13.378;2023-05-10T04:45:11;7.47;;;6.75;;
48487;SDS011;34289;48.572;13.378;2023-05-10T04:47:36;7.65;;;6.95;;
48487;SDS011;34289;48.572;13.378;2023-05-10T04:50:03;10.35;;;6.53;;
48487;SDS011;34289;48.572;13.378;2023-05-10T04:52:29;7.93;;;7.03;;
48487;SDS011;34289;48.572;13.378;2023-05-10T04:54:54;7.57;;;6.30;;
48487;SDS011;34289;48.572;13.378;2023-05-10T04:57:20;8.48;;;5.95;;
48487;SDS011;34289;48.572;13.378;2023-05-10T04:59:46;10.07;;;5.90;;
48487;SDS011;34289;48.572;13.378;2023-05-10T05:02:12;6.68;;;6.05;;
48487;SDS011;34289;48.572;13.378;2023-05-10T05:04:38;7.85;;;7.05;;
48487;SDS011;34289;48.572;13.378;2023-05-10T05:07:04;8.50;;;6.40;;
48487;SDS011;34289;48.572;13.378;2023-05-10T05:09:29;7.20;;;5.70;;
48487;SDS011;34289;48.572;13.378;2023-05-10T05:11:57;7.53;;;6.20;;
48487;SDS011;34289;48.572;13.378;2023-05-10T05:14:22;7.43;;;5.88;;
48487;SDS011;34289;48.572;13.378;2023-05-10T05:16:50;7.35;;;5.47;;
48487;SDS011;34289;48.572;13.378;2023-05-10T05:19:19;6.88;;;5.75;;
48487;SDS011;34289;48.572;13.378;2023-05-10T05:21:44;7.70;;;6.13;;
48487;SDS011;34289;48.572;13.378;2023-05-10T05:24:10;8.65;;;6.40;;
48487;SDS011;34289;48.572;13.378;2023-05-10T05:26:37;9.60;;;6.28;;
48487;SDS011;34289;48.572;13.378;2023-05-10T05:29:03;8.13;;;5.53;;
48487;SDS011;34289;48.572;13.378;2023-05-10T05:31:29;7.60;;;5.55;;
48487;SDS011;34289;48.572;13.378;2023-05-10T05:33:55;9.65;;;5.53;;
48487;SDS011;34289;48.572;13.378;2023-05-10T05:36:21;8.57;;;5.70;;
48487;SDS011;34289;48.572;13.378;2023-05-10T05:38:49;7.93;;;5.68;;
48487;SDS011;34289;48.572;13.378;2023-05-10T05:41:15;8.00;;;5.80;;
48487;SDS011;34289;48.572;13.378;2023-05-10T05:43:40;9.60;;;6.93;;
48487;SDS011;34289;48.572;13.378;2023-05-10T05:46:06;10.70;;;7.00;;
48487;SDS011;34289;48.572;13.378;2023-05-10T05:48:32;11.23;;;8.05;;
48487;SDS011;34289;48.572;13.378;2023-05-10T05:50:57;8.75;;;6.97;;
48487;SDS011;34289;48.572;13.378;2023-05-10T05:53:23;10.77;;;8.48;;
48487;SDS011;34289;48.572;13.378;2023-05-10T05:55:55;9.40;;;7.30;;
48487;SDS011;34289;48.572;13.378;2023-05-10T05:58:23;9.60;;;8.23;;
48487;SDS011;34289;48.572;13.378;2023-05-10T06:00:49;9.45;;;7.63;;
48487;SDS011;34289;48.572;13.378;2023-05-10T06:03:19;11.43;;;8.02;;
48487;SDS011;34289;48.572;13.378;2023-05-10T06:05:45;9.55;;;7.15;;
48487;SDS011;34289;48.572;13.378;2023-05-10T06:08:11;11.57;;;7.55;;
48487;SDS011;34289;48.572;13.378;2023-05-10T06:10:37;9.88;;;7.70;;
48487;SDS011;34289;48.572;13.378;2023-05-10T06:13:03;11.50;;;8.40;;
48487;SDS011;34289;48.572;13.378;2023-05-10T06:15:28;10.70;;;8.45;;
48487;SDS011;34289;48.572;13.378;2023-05-10T06:17:54;12.50;;;9.07;;
48487;SDS011;34289;48.572;13.378;2023-05-10T06:20:19;10.68;;;8.57;;
48487;SDS011;34289;48.572;13.378;2023-05-10T06:22:45;13.90;;;9.05;;
48487;SDS011;34289;48.572;13.378;2023-05-10T06:25:11;10.75;;;8.18;;
48487;SDS011;34289;48.572;13.378;2023-05-10T06:27:37;10.65;;;8.68;;
48487;SDS011;34289;48.572;13.378;2023-05-10T06:30:02;12.15;;;8.80;;
48487;SDS011;34289;48.572;13.378;2023-05-10T06:32:29;11.75;;;8.90;;
48487;SDS011;34289;48.572;13.378;2023-05-10T06:34:55;9.65;;;8.02;;
48487;SDS011;34289;48.572;13.378;2023-05-10T06:37:21;11.65;;;8.70;;
48487;SDS011;34289;48.572;13.378;2023-05-10T06:39:46;10.00;;;8.02;;
48487;SDS011;34289;48.572;13.378;2023-05-10T06:42:12;10.50;;;8.27;;
48487;SDS011;34289;48.572;13.378;2023-05-10T06:44:38;11.68;;;7.85;;
48487;SDS011;34289;48.572;13.378;2023-05-10T06:47:03;11.05;;;8.32;;
48487;SDS011;34289;48.572;13.378;2023-05-10T06:49:29;11.40;;;8.23;;
48487;SDS011;34289;48.572;13.378;2023-05-10T06:51:55;10.68;;;7.70;;
48487;SDS011;34289;48.572;13.378;2023-05-10T06:54:21;10.20;;;7.70;;
48487;SDS011;34289;48.572;13.378;2023-05-10T06:56:46;10.20;;;7.63;;
48487;SDS011;34289;48.572;13.378;2023-05-10T06:59:12;9.52;;;7.35;;
48487;SDS011;34289;48.572;13.378;2023-05-10T07:01:38;9.70;;;8.00;;
48487;SDS011;34289;48.572;13.378;2023-05-10T07:04:04;10.85;;;7.68;;
48487;SDS011;34289;48.572;13.378;2023-05-10T07:06:30;9.45;;;7.43;;
48487;SDS011;34289;48.572;13.378;2023-05-10T07:08:56;9.05;;;7.13;;
48487;SDS011;34289;48.572;13.378;2023-05-10T07:11:22;9.10;;;7.70;;
48487;SDS011;34289;48.572;13.378;2023-05-10T07:13:47;12.18;;;7.07;;
48487;SDS011;34289;48.572;13.378;2023-05-10T07:16:13;11.52;;;8.02;;
48487;SDS011;34289;48.572;13.378;2023-05-10T07:18:38;11.10;;;8.52;;
48487;SDS011;34289;48.572;13.378;2023-05-10T07:21:04;10.05;;;8.27;;
48487;SDS011;34289;48.572;13.378;2023-05-10T07:23:30;9.52;;;7.30;;
48487;SDS011;34289;48.572;13.378;2023-05-10T07:25:55;13.70;;;8.88;;
48487;SDS011;34289;48.572;13.378;2023-05-10T07:28:22;10.90;;;8.07;;
48487;SDS011;34289;48.572;13.378;2023-05-10T07:30:49;11.80;;;9.25;;
48487;SDS011;34289;48.572;13.378;2023-05-10T07:33:15;9.20;;;7.70;;
48487;SDS011;34289;48.572;13.378;2023-05-10T07:35:41;12.02;;;9.48;;
48487;SDS011;34289;48.572;13.378;2023-05-10T07:38:07;13.60;;;9.25;;
48487;SDS011;34289;48.572;13.378;2023-05-10T07:40:33;10.35;;;8.90;;
48487;SDS011;34289;48.572;13.378;2023-05-10T07:42:59;11.75;;;9.13;;
48487;SDS011;34289;48.572;13.378;2023-05-10T07:45:26;12.70;;;9.23;;
48487;SDS011;34289;48.572;13.378;2023-05-10T07:47:52;10.65;;;8.50;;
48487;SDS011;34289;48.572;13.378;2023-05-10T07:50:18;9.68;;;8.32;;
48487;SDS011;34289;48.572;13.378;2023-05-10T07:52:43;11.93;;;8.15;;
48487;SDS011;34289;48.572;13.378;2023-05-10T07:55:09;9.15;;;7.85;;
48487;SDS011;34289;48.572;13.378;2023-05-10T07:57:35;12.20;;;9.32;;
48487;SDS011;34289;48.572;13.378;2023-05-10T08:00:01;11.90;;;9.20;;
48487;SDS011;34289;48.572;13.378;2023-05-10T08:02:27;10.80;;;8.52;;
48487;SDS011;34289;48.572;13.378;2023-05-10T08:04:53;13.27;;;8.80;;
48487;SDS011;34289;48.572;13.378;2023-05-10T08:07:18;16.13;;;8.90;;
48487;SDS011;34289;48.572;13.378;2023-05-10T08:09:44;11.38;;;9.07;;
48487;SDS011;34289;48.572;13.378;2023-05-10T08:12:09;10.77;;;9.15;;
48487;SDS011;34289;48.572;13.378;2023-05-10T08:14:35;12.23;;;9.63;;
48487;SDS011;34289;48.572;13.378;2023-05-10T08:17:01;18.05;;;11.15;;
48487;SDS011;34289;48.572;13.378;2023-05-10T08:19:28;14.50;;;10.25;;
48487;SDS011;34289;48.572;13.378;2023-05-10T08:21:53;11.18;;;8.52;;
48487;SDS011;34289;48.572;13.378;2023-05-10T08:24:20;13.32;;;9.18;;
48487;SDS011;34289;48.572;13.378;2023-05-10T08:26:46;11.30;;;9.32;;
48487;SDS011;34289;48.572;13.378;2023-05-10T08:29:12;13.80;;;8.65;;
48487;SDS011;34289;48.572;13.378;2023-05-10T08:31:38;10.98;;;9.68;;
48487;SDS011;34289;48.572;13.378;2023-05-10T08:34:04;10.90;;;8.60;;
48487;SDS011;34289;48.572;13.378;2023-05-10T08:36:30;13.40;;;9.30;;
48487;SDS011;34289;48.572;13.378;2023-05-10T08:38:57;12.75;;;8.95;;
48487;SDS011;34289;48.572;13.378;2023-05-10T08:41:23;23.63;;;12.35;;
48487;SDS011;34289;48.572;13.378;2023-05-10T08:43:50;14.05;;;9.77;;
48487;SDS011;34289;48.572;13.378;2023-05-10T08:46:17;9.20;;;8.00;;
48487;SDS011;34289;48.572;13.378;2023-05-10T08:48:44;14.85;;;9.93;;
48487;SDS011;34289;48.572;13.378;2023-05-10T08:51:14;12.90;;;8.52;;
48487;SDS011;34289;48.572;13.378;2023-05-10T08:53:45;12.40;;;9.00;;
48487;SDS011;34289;48.572;13.378;2023-05-10T08:56:11;14.05;;;9.35;;
48487;SDS011;34289;48.572;13.378;2023-05-10T08:58:37;16.48;;;10.65;;
48487;SDS011;34289;48.572;13.378;2023-05-10T09:01:03;11.80;;;9.05;;
48487;SDS011;34289;48.572;13.378;2023-05-10T09:03:30;10.10;;;8.40;;
48487;SDS011;34289;48.572;13.378;2023-05-10T09:05:56;11.75;;;8.32;;
48487;SDS011;34289;48.572;13.378;2023-05-10T09:08:22;9.52;;;8.48;;
48487;SDS011;34289;48.572;13.378;2023-05-10T09:10:52;11.07;;;7.45;;
48487;SDS011;34289;48.572;13.378;2023-05-10T09:13:19;10.55;;;8.98;;
48487;SDS011;34289;48.572;13.378;2023-05-10T09:15:47;12.00;;;8.63;;
48487;SDS011;34289;48.572;13.378;2023-05-10T09:18:13;11.38;;;9.35;;
48487;SDS011;34289;48.572;13.378;2023-05-10T09:20:39;10.95;;;8.35;;
48487;SDS011;34289;48.572;13.378;2023-05-10T09:23:05;8.65;;;7.80;;
48487;SDS011;34289;48.572;13.378;2023-05-10T09:25:30;9.27;;;8.27;;
48487;SDS011;34289;48.572;13.378;2023-05-10T09:27:58;10.32;;;8.40;;
48487;SDS011;34289;48.572;13.378;2023-05-10T09:30:25;10.05;;;8.38;;
48487;SDS011;34289;48.572;13.378;2023-05-10T09:32:52;9.23;;;7.78;;
48487;SDS011;34289;48.572;13.378;2023-05-10T09:35:21;9.82;;;8.52;;
48487;SDS011;34289;48.572;13.378;2023-05-10T09:37:50;9.85;;;7.55;;
48487;SDS011;34289;48.572;13.378;2023-05-10T09:40:22;11.30;;;7.65;;
48487;SDS011;34289;48.572;13.378;2023-05-10T09:47:51;7.28;;;6.57;;
48487;SDS011;34289;48.572;13.378;2023-05-10T09:50:17;7.70;;;6.93;;
48487;SDS011;34289;48.572;13.378;2023-05-10T09:55:21;7.65;;;4.75;;
48487;SDS011;34289;48.572;13.378;2023-05-10T09:57:49;5.03;;;4.53;;
48487;SDS011;34289;48.572;13.378;2023-05-10T10:00:23;9.18;;;4.65;;
48487;SDS011;34289;48.572;13.378;2023-05-10T10:02:56;4.75;;;3.88;;
48487;SDS011;34289;48.572;13.378;2023-05-10T10:05:33;4.15;;;3.75;;
48487;SDS011;34289;48.572;13.378;2023-05-10T10:08:01;6.43;;;4.00;;
48487;SDS011;34289;48.572;13.378;2023-05-10T10:10:29;4.07;;;3.67;;
48487;SDS011;34289;48.572;13.378;2023-05-10T10:12:56;4.57;;;4.00;;
48487;SDS011;34289;48.572;13.378;2023-05-10T10:15:22;4.97;;;4.03;;
48487;SDS011;34289;48.572;13.378;2023-05-10T10:17:48;4.18;;;3.78;;
48487;SDS011;34289;48.572;13.378;2023-05-10T10:20:15;5.13;;;4.30;;
48487;SDS011;34289;48.572;13.378;2023-05-10T10:22:42;4.75;;;4.15;;
48487;SDS011;34289;48.572;13.378;2023-05-10T10:25:11;4.35;;;3.70;;
48487;SDS011;34289;48.572;13.378;2023-05-10T10:35:55;4.25;;;3.85;;
48487;SDS011;34289;48.572;13.378;2023-05-10T10:38:24;4.18;;;3.78;;
48487;SDS011;34289;48.572;13.378;2023-05-10T10:41:03;4.50;;;3.65;;
48487;SDS011;34289;48.572;13.378;2023-05-10T10:43:35;4.10;;;3.42;;
48487;SDS011;34289;48.572;13.378;2023-05-10T10:46:10;4.00;;;3.60;;
48487;SDS011;34289;48.572;13.378;2023-05-10T10:48:40;4.65;;;4.20;;
48487;SDS011;34289;48.572;13.378;2023-05-10T10:51:13;5.15;;;3.63;;
48487;SDS011;34289;48.572;13.378;2023-05-10T10:53:40;6.55;;;3.28;;
48487;SDS011;34289;48.572;13.378;2023-05-10T10:56:12;5.25;;;4.35;;
48487;SDS011;34289;48.572;13.378;2023-05-10T10:58:40;7.05;;;3.65;;
48487;SDS011;34289;48.572;13.378;2023-05-10T11:01:13;3.65;;;3.35;;
48487;SDS011;34289;48.572;13.378;2023-05-10T11:06:33;7.90;;;4.10;;
48487;SDS011;34289;48.572;13.378;2023-05-10T11:09:07;4.03;;;3.63;;
48487;SDS011;34289;48.572;13.378;2023-05-10T11:11:34;5.05;;;4.03;;
48487;SDS011;34289;48.572;13.378;2023-05-10T11:14:04;4.28;;;3.63;;
48487;SDS011;34289;48.572;13.378;2023-05-10T11:16:40;4.40;;;3.92;;
48487;SDS011;34289;48.572;13.378;2023-05-10T11:19:08;5.30;;;3.67;;
48487;SDS011;34289;48.572;13.378;2023-05-10T11:21:48;7.60;;;4.22;;
48487;SDS011;34289;48.572;13.378;2023-05-10T11:24:38;6.18;;;4.68;;
48487;SDS011;34289;48.572;13.378;2023-05-10T11:27:03;5.25;;;4.32;;
48487;SDS011;34289;48.572;13.378;2023-05-10T11:29:30;6.82;;;5.50;;
48487;SDS011;34289;48.572;13.378;2023-05-10T11:31:59;5.20;;;4.50;;
48487;SDS011;34289;48.572;13.378;2023-05-10T11:36:55;5.13;;;4.57;;
48487;SDS011;34289;48.572;13.378;2023-05-10T11:39:21;4.82;;;3.90;;
48487;SDS011;34289;48.572;13.378;2023-05-10T11:41:55;12.30;;;4.90;;
48487;SDS011;34289;48.572;13.378;2023-05-10T11:44:20;4.72;;;3.90;;
48487;SDS011;34289;48.572;13.378;2023-05-10T11:46:46;4.38;;;3.85;;
48487;SDS011;34289;48.572;13.378;2023-05-10T11:49:12;4.97;;;3.70;;
48487;SDS011;34289;48.572;13.378;2023-05-10T11:51:38;4.70;;;4.15;;
48487;SDS011;34289;48.572;13.378;2023-05-10T11:54:08;6.55;;;3.85;;
48487;SDS011;34289;48.572;13.378;2023-05-10T11:56:34;4.20;;;3.40;;
48487;SDS011;34289;48.572;13.378;2023-05-10T11:59:01;4.95;;;4.18;;
48487;SDS011;34289;48.572;13.378;2023-05-10T12:01:27;6.32;;;4.40;;
48487;SDS011;34289;48.572;13.378;2023-05-10T12:03:54;5.40;;;3.65;;
48487;SDS011;34289;48.572;13.378;2023-05-10T12:06:28;5.10;;;3.95;;
48487;SDS011;34289;48.572;13.378;2023-05-10T12:09:05;4.53;;;3.90;;
48487;SDS011;34289;48.572;13.378;2023-05-10T12:11:31;4.25;;;3.85;;
48487;SDS011;34289;48.572;13.378;2023-05-10T12:13:57;4.63;;;3.92;;
48487;SDS011;34289;48.572;13.378;2023-05-10T12:16:29;4.93;;;4.38;;
48487;SDS011;34289;48.572;13.378;2023-05-10T12:18:56;4.57;;;4.05;;
48487;SDS011;34289;48.572;13.378;2023-05-10T12:21:23;4.40;;;3.95;;
48487;SDS011;34289;48.572;13.378;2023-05-10T12:23:52;4.53;;;4.05;;
48487;SDS011;34289;48.572;13.378;2023-05-10T12:26:22;7.78;;;3.97;;
48487;SDS011;34289;48.572;13.378;2023-05-10T12:28:49;4.43;;;4.03;;
48487;SDS011;34289;48.572;13.378;2023-05-10T12:31:15;4.70;;;4.00;;
48487;SDS011;34289;48.572;13.378;2023-05-10T12:33:41;9.07;;;5.30;;
48487;SDS011;34289;48.572;13.378;2023-05-10T12:36:09;4.30;;;3.90;;
48487;SDS011;34289;48.572;13.378;2023-05-10T12:38:36;4.78;;;3.80;;
48487;SDS011;34289;48.572;13.378;2023-05-10T12:43:38;6.38;;;5.20;;
48487;SDS011;34289;48.572;13.378;2023-05-10T12:46:07;4.47;;;3.90;;
48487;SDS011;34289;48.572;13.378;2023-05-10T12:48:34;4.15;;;3.75;;
48487;SDS011;34289;48.572;13.378;2023-05-10T12:51:01;4.05;;;3.63;;
48487;SDS011;34289;48.572;13.378;2023-05-10T12:53:28;3.72;;;3.17;;
48487;SDS011;34289;48.572;13.378;2023-05-10T12:55:54;4.20;;;3.33;;
48487;SDS011;34289;48.572;13.378;2023-05-10T12:58:20;4.05;;;3.65;;
48487;SDS011;34289;48.572;13.378;2023-05-10T13:00:45;4.68;;;4.00;;
48487;SDS011;34289;48.572;13.378;2023-05-10T13:03:11;4.47;;;4.07;;
48487;SDS011;34289;48.572;13.378;2023-05-10T13:05:37;4.35;;;3.95;;
48487;SDS011;34289;48.572;13.378;2023-05-10T13:08:03;4.10;;;3.70;;
48487;SDS011;34289;48.572;13.378;2023-05-10T13:10:29;4.22;;;3.83;;
48487;SDS011;34289;48.572;13.378;2023-05-10T13:12:55;4.80;;;4.18;;
48487;SDS011;34289;48.572;13.378;2023-05-10T13:15:22;5.90;;;5.30;;
48487;SDS011;34289;48.572;13.378;2023-05-10T13:17:47;5.05;;;4.55;;
48487;SDS011;34289;48.572;13.378;2023-05-10T13:20:13;6.07;;;4.63;;
48487;SDS011;34289;48.572;13.378;2023-05-10T13:22:39;5.68;;;4.60;;
48487;SDS011;34289;48.572;13.378;2023-05-10T13:25:06;5.18;;;4.20;;
48487;SDS011;34289;48.572;13.378;2023-05-10T13:27:32;4.13;;;3.72;;
48487;SDS011;34289;48.572;13.378;2023-05-10T13:29:57;4.97;;;3.65;;
48487;SDS011;34289;48.572;13.378;2023-05-10T13:32:24;6.20;;;4.13;;
48487;SDS011;34289;48.572;13.378;2023-05-10T13:34:50;4.78;;;4.15;;
48487;SDS011;34289;48.572;13.378;2023-05-10T13:37:16;4.68;;;4.15;;
48487;SDS011;34289;48.572;13.378;2023-05-10T13:39:42;4.85;;;4.35;;
48487;SDS011;34289;48.572;13.378;2023-05-10T13:42:07;4.10;;;3.67;;
48487;SDS011;34289;48.572;13.378;2023-05-10T13:44:33;5.55;;;3.55;;
48487;SDS011;34289;48.572;13.378;2023-05-10T13:46:59;4.88;;;4.18;;
48487;SDS011;34289;48.572;13.378;2023-05-10T13:49:24;3.92;;;3.53;;
48487;SDS011;34289;48.572;13.378;2023-05-10T13:51:51;4.53;;;3.38;;
48487;SDS011;34289;48.572;13.378;2023-05-10T13:54:17;3.83;;;3.03;;
48487;SDS011;34289;48.572;13.378;2023-05-10T13:56:44;3.20;;;2.60;;
48487;SDS011;34289;48.572;13.378;2023-05-10T13:59:12;3.22;;;1.95;;
48487;SDS011;34289;48.572;13.378;2023-05-10T14:01:38;3.25;;;2.70;;
48487;SDS011;34289;48.572;13.378;2023-05-10T14:04:04;3.08;;;2.70;;
48487;SDS011;34289;48.572;13.378;2023-05-10T14:06:30;2.72;;;2.45;;
48487;SDS011;34289;48.572;13.378;2023-05-10T14:08:56;2.67;;;2.30;;
48487;SDS011;34289;48.572;13.378;2023-05-10T14:11:21;2.95;;;2.50;;
48487;SDS011;34289;48.572;13.378;2023-05-10T14:13:48;3.40;;;2.58;;
48487;SDS011;34289;48.572;13.378;2023-05-10T14:16:14;3.20;;;2.60;;
48487;SDS011;34289;48.572;13.378;2023-05-10T14:18:39;2.55;;;2.33;;
48487;SDS011;34289;48.572;13.378;2023-05-10T14:21:05;5.18;;;3.10;;
48487;SDS011;34289;48.572;13.378;2023-05-10T14:23:31;3.90;;;2.72;;
48487;SDS011;34289;48.572;13.378;2023-05-10T14:25:56;3.35;;;3.00;;
48487;SDS011;34289;48.572;13.378;2023-05-10T14:28:22;3.58;;;2.78;;
48487;SDS011;34289;48.572;13.378;2023-05-10T14:30:48;3.35;;;3.05;;
48487;SDS011;34289;48.572;13.378;2023-05-10T14:33:16;2.88;;;2.50;;
48487;SDS011;34289;48.572;13.378;2023-05-10T14:35:41;2.80;;;2.28;;
48487;SDS011;34289;48.572;13.378;2023-05-10T14:38:07;3.20;;;2.55;;
48487;SDS011;34289;48.572;13.378;2023-05-10T14:40:33;2.53;;;2.30;;
48487;SDS011;34289;48.572;13.378;2023-05-10T14:42:59;3.03;;;2.35;;
48487;SDS011;34289;48.572;13.378;2023-05-10T14:45:25;2.95;;;2.50;;
48487;SDS011;34289;48.572;13.378;2023-05-10T14:47:51;2.65;;;2.42;;
48487;SDS011;34289;48.572;13.378;2023-05-10T14:50:17;2.88;;;2.20;;
48487;SDS011;34289;48.572;13.378;2023-05-10T14:52:43;2.50;;;2.30;;
48487;SDS011;34289;48.572;13.378;2023-05-10T14:55:09;2.90;;;2.17;;
48487;SDS011;34289;48.572;13.378;2023-05-10T14:57:35;2.45;;;2.03;;
48487;SDS011;34289;48.572;13.378;2023-05-10T15:00:01;3.45;;;2.80;;
48487;SDS011;34289;48.572;13.378;2023-05-10T15:02:27;3.72;;;2.55;;
48487;SDS011;34289;48.572;13.378;2023-05-10T15:04:53;2.55;;;1.95;;
48487;SDS011;34289;48.572;13.378;2023-05-10T15:07:18;3.08;;;2.65;;
48487;SDS011;34289;48.572;13.378;2023-05-10T15:09:44;1.95;;;1.75;;
48487;SDS011;34289;48.572;13.378;2023-05-10T15:12:10;3.72;;;2.30;;
48487;SDS011;34289;48.572;13.378;2023-05-10T15:14:36;2.40;;;2.13;;